Time;durP1;ratioP1;P1;durP2;ratioP2;P2;SDS_P1;SDS_P2;PMS_P1;PMS_P2;Temp;Humidity;BMP_temperature;BMP_pressure;BME280_temperature;BME280_humidity;BME280_pressure;Samples;Min_cycle;Max_cycle;Signal;HPM_P1;HPM_P2
2023/07/17 00:01:15;;;;;;;16.40;6.95;;;;;;;;;;4988268;28;20037;-53
2023/07/17 00:03:41;;;;;;;12.50;6.57;;;;;;;;;;4994053;28;20034;-53
2023/07/17 00:06:07;;;;;;;10.55;6.60;;;;;;;;;;4988110;28;20035;-55
2023/07/17 00:08:32;;;;;;;14.45;6.20;;;;;;;;;;4997948;28;20052;-50
2023/07/17 00:10:58;;;;;;;18.27;6.80;;;;;;;;;;4992199;28;20026;-52
2023/07/17 00:13:24;;;;;;;13.23;6.93;;;;;;;;;;4989235;28;20074;-52
2023/07/17 00:15:49;;;;;;;14.48;7.07;;;;;;;;;;4999066;28;20414;-50
2023/07/17 00:18:15;;;;;;;12.23;6.53;;;;;;;;;;4993213;28;20050;-52
2023/07/17 00:20:40;;;;;;;16.17;6.72;;;;;;;;;;4988737;28;20034;-50
2023/07/17 00:23:06;;;;;;;13.63;6.65;;;;;;;;;;4996861;28;20045;-50
2023/07/17 00:25:31;;;;;;;11.73;6.75;;;;;;;;;;4991792;28;20026;-48
2023/07/17 00:27:57;;;;;;;19.10;6.68;;;;;;;;;;4995812;28;20045;-53
2023/07/17 00:30:22;;;;;;;13.05;6.95;;;;;;;;;;5010505;28;20027;-50
2023/07/17 00:32:48;;;;;;;10.90;6.63;;;;;;;;;;4992708;28;20041;-52
2023/07/17 00:35:13;;;;;;;18.45;6.93;;;;;;;;;;4998602;28;20240;-49
2023/07/17 00:37:38;;;;;;;17.30;7.50;;;;;;;;;;4986352;28;20042;-50
2023/07/17 00:40:07;;;;;;;12.32;6.47;;;;;;;;;;4991670;28;20026;-52
2023/07/17 00:42:32;;;;;;;12.80;6.95;;;;;;;;;;4991681;28;20114;-50
2023/07/17 00:44:58;;;;;;;14.77;6.95;;;;;;;;;;4988024;28;20030;-50
2023/07/17 00:47:23;;;;;;;13.40;6.68;;;;;;;;;;4998258;28;20076;-51
2023/07/17 00:49:49;;;;;;;11.65;6.78;;;;;;;;;;4998038;28;20472;-51
2023/07/17 00:52:17;;;;;;;13.63;6.28;;;;;;;;;;4993107;28;20034;-48
2023/07/17 00:54:43;;;;;;;20.63;7.35;;;;;;;;;;4993917;28;20112;-52
2023/07/17 00:57:11;;;;;;;19.70;7.80;;;;;;;;;;4991639;28;20508;-51
2023/07/17 00:59:37;;;;;;;17.13;7.15;;;;;;;;;;4989890;28;20532;-51
2023/07/17 01:02:03;;;;;;;12.57;6.95;;;;;;;;;;5002135;28;20030;-50
2023/07/17 01:04:28;;;;;;;16.70;7.22;;;;;;;;;;4992853;28;20097;-49
2023/07/17 01:06:54;;;;;;;14.70;6.82;;;;;;;;;;4998332;28;20026;-50
2023/07/17 01:09:20;;;;;;;14.05;6.70;;;;;;;;;;4996797;28;20038;-53
2023/07/17 01:11:45;;;;;;;14.27;6.45;;;;;;;;;;4984442;28;20046;-53
2023/07/17 01:14:15;;;;;;;11.07;7.22;;;;;;;;;;4997406;28;20057;-50
2023/07/17 01:16:42;;;;;;;10.38;6.63;;;;;;;;;;4989387;28;20023;-52
2023/07/17 01:19:07;;;;;;;14.68;6.75;;;;;;;;;;4986425;28;20129;-50
2023/07/17 01:21:34;;;;;;;17.92;7.57;;;;;;;;;;4996877;28;20066;-51
2023/07/17 01:23:59;;;;;;;12.13;6.75;;;;;;;;;;4985929;28;20061;-50
2023/07/17 01:26:25;;;;;;;14.70;7.38;;;;;;;;;;4991952;28;20023;-53
2023/07/17 01:28:50;;;;;;;15.18;7.07;;;;;;;;;;4990059;28;20038;-52
2023/07/17 01:31:16;;;;;;;14.55;6.78;;;;;;;;;;4995262;28;20053;-51
2023/07/17 01:33:41;;;;;;;11.68;6.40;;;;;;;;;;4990882;28;20528;-51
2023/07/17 01:36:07;;;;;;;13.35;7.00;;;;;;;;;;4994215;28;20100;-54
2023/07/17 01:38:33;;;;;;;10.95;7.22;;;;;;;;;;4992177;28;20097;-51
2023/07/17 01:40:59;;;;;;;9.57;6.32;;;;;;;;;;4983710;28;20603;-51
2023/07/17 01:43:24;;;;;;;15.70;7.95;;;;;;;;;;4996084;28;20057;-54
2023/07/17 01:45:50;;;;;;;8.38;6.47;;;;;;;;;;4993370;28;20037;-52
2023/07/17 01:48:17;;;;;;;12.98;6.97;;;;;;;;;;4993496;28;20447;-52
2023/07/17 01:50:45;;;;;;;18.02;6.85;;;;;;;;;;4997277;28;20528;-55
2023/07/17 01:53:11;;;;;;;10.63;6.60;;;;;;;;;;4993212;28;20042;-54
2023/07/17 01:55:37;;;;;;;15.98;6.97;;;;;;;;;;4990941;28;20084;-55
2023/07/17 01:58:02;;;;;;;13.35;6.88;;;;;;;;;;4993228;28;20106;-52
2023/07/17 02:00:28;;;;;;;8.40;6.63;;;;;;;;;;4997161;28;20030;-53
2023/07/17 02:02:53;;;;;;;14.30;6.78;;;;;;;;;;4989547;28;20085;-54
2023/07/17 02:05:20;;;;;;;11.60;6.78;;;;;;;;;;4994444;28;20030;-51
2023/07/17 02:07:46;;;;;;;13.75;6.63;;;;;;;;;;5001860;28;20042;-53
2023/07/17 02:10:11;;;;;;;13.05;6.72;;;;;;;;;;4992327;28;20458;-55
2023/07/17 02:12:37;;;;;;;14.40;7.28;;;;;;;;;;4991699;28;20038;-56
2023/07/17 02:15:02;;;;;;;16.25;6.90;;;;;;;;;;4989303;28;20022;-52
2023/07/17 02:17:28;;;;;;;16.33;7.78;;;;;;;;;;4992631;28;20473;-53
2023/07/17 02:19:53;;;;;;;11.13;6.93;;;;;;;;;;4987719;28;20030;-50
2023/07/17 02:22:19;;;;;;;19.00;7.80;;;;;;;;;;4984971;28;20437;-53
2023/07/17 02:24:44;;;;;;;18.42;8.05;;;;;;;;;;4967586;28;20069;-51
2023/07/17 02:27:09;;;;;;;14.65;7.75;;;;;;;;;;4967762;28;20052;-50
2023/07/17 02:29:35;;;;;;;17.40;7.95;;;;;;;;;;4962954;28;20106;-52
2023/07/17 02:32:00;;;;;;;17.38;7.80;;;;;;;;;;4974107;28;20043;-49
2023/07/17 02:34:26;;;;;;;14.02;6.85;;;;;;;;;;4967517;28;20083;-50
2023/07/17 02:36:54;;;;;;;17.15;7.45;;;;;;;;;;4972996;28;20074;-52
2023/07/17 02:39:20;;;;;;;15.80;7.28;;;;;;;;;;4972902;28;20121;-53
2023/07/17 02:41:46;;;;;;;14.00;7.80;;;;;;;;;;4973970;28;20035;-51
2023/07/17 02:44:13;;;;;;;18.67;8.02;;;;;;;;;;4965279;28;20058;-49
2023/07/17 02:46:39;;;;;;;20.48;8.32;;;;;;;;;;4969130;28;20118;-52
2023/07/17 02:49:06;;;;;;;20.92;7.82;;;;;;;;;;4986847;28;20125;-53
2023/07/17 02:51:31;;;;;;;16.33;8.57;;;;;;;;;;4987837;28;20049;-52
2023/07/17 02:53:56;;;;;;;12.05;7.32;;;;;;;;;;4969053;28;20046;-50
2023/07/17 02:56:23;;;;;;;15.73;7.88;;;;;;;;;;4971862;28;20129;-52
2023/07/17 02:58:53;;;;;;;22.35;7.88;;;;;;;;;;4983685;28;20042;-51
2023/07/17 03:01:19;;;;;;;15.27;8.10;;;;;;;;;;4992623;28;20037;-49
2023/07/17 03:03:44;;;;;;;12.98;7.50;;;;;;;;;;4986957;28;20163;-51
2023/07/17 03:06:10;;;;;;;17.38;7.75;;;;;;;;;;4977050;28;20138;-50
2023/07/17 03:08:35;;;;;;;13.98;8.13;;;;;;;;;;4988973;28;20117;-54
2023/07/17 03:11:03;;;;;;;17.70;8.05;;;;;;;;;;4985443;28;20034;-50
2023/07/17 03:13:29;;;;;;;16.83;8.10;;;;;;;;;;4973281;28;20039;-50
2023/07/17 03:15:58;;;;;;;16.77;8.65;;;;;;;;;;4973800;28;20154;-51
2023/07/17 03:18:27;;;;;;;20.88;8.52;;;;;;;;;;4972620;28;20038;-55
2023/07/17 03:20:54;;;;;;;17.10;8.30;;;;;;;;;;4971780;28;20035;-49
2023/07/17 03:23:20;;;;;;;10.85;7.22;;;;;;;;;;4969913;28;20074;-51
2023/07/17 03:25:45;;;;;;;17.30;7.80;;;;;;;;;;4969476;28;20489;-54
2023/07/17 03:28:11;;;;;;;17.38;8.07;;;;;;;;;;4957716;28;20098;-53
2023/07/17 03:30:36;;;;;;;15.48;8.68;;;;;;;;;;4975302;28;20062;-51
2023/07/17 03:33:02;;;;;;;19.77;7.88;;;;;;;;;;4966851;28;20070;-52
2023/07/17 03:35:28;;;;;;;19.38;7.93;;;;;;;;;;4964370;28;20102;-51
2023/07/17 03:37:53;;;;;;;17.15;8.27;;;;;;;;;;4969274;28;20043;-52
2023/07/17 03:40:19;;;;;;;17.27;8.55;;;;;;;;;;4966389;28;20038;-54
2023/07/17 03:42:44;;;;;;;32.78;8.95;;;;;;;;;;4974473;28;20050;-54
2023/07/17 03:45:10;;;;;;;16.40;8.80;;;;;;;;;;4986907;28;20038;-52
2023/07/17 03:47:35;;;;;;;15.27;8.77;;;;;;;;;;4989636;28;20376;-51
2023/07/17 03:50:01;;;;;;;14.30;8.68;;;;;;;;;;4982294;28;20037;-51
2023/07/17 03:52:26;;;;;;;12.95;7.93;;;;;;;;;;4994809;28;20026;-52
2023/07/17 03:54:51;;;;;;;14.77;7.95;;;;;;;;;;4995439;28;20057;-53
2023/07/17 03:57:17;;;;;;;15.38;8.35;;;;;;;;;;5007738;28;20110;-54
2023/07/17 03:59:55;;;;;;;17.10;9.43;;;;;;;;;;4995686;28;20030;-52
2023/07/17 04:02:21;;;;;;;19.02;8.60;;;;;;;;;;4996760;28;20503;-52
2023/07/17 04:04:48;;;;;;;15.98;8.82;;;;;;;;;;4995573;28;20104;-54
2023/07/17 04:07:14;;;;;;;14.13;8.57;;;;;;;;;;4995682;28;20061;-48
2023/07/17 04:09:39;;;;;;;21.35;8.88;;;;;;;;;;4995617;28;20026;-52
2023/07/17 04:12:05;;;;;;;14.45;8.05;;;;;;;;;;4999570;28;20022;-54
2023/07/17 04:14:32;;;;;;;18.05;8.15;;;;;;;;;;4990473;28;20064;-51
2023/07/17 04:16:58;;;;;;;15.48;8.27;;;;;;;;;;4997581;28;20034;-53
2023/07/17 04:19:23;;;;;;;13.93;8.35;;;;;;;;;;4993024;28;20042;-54
2023/07/17 04:21:49;;;;;;;14.00;8.65;;;;;;;;;;4981707;28;20037;-50
2023/07/17 04:24:14;;;;;;;14.48;8.25;;;;;;;;;;4989963;28;20039;-48
2023/07/17 04:26:40;;;;;;;17.55;8.27;;;;;;;;;;4985235;28;20033;-50
2023/07/17 04:29:06;;;;;;;11.90;7.50;;;;;;;;;;4988236;28;20030;-52
2023/07/17 04:31:32;;;;;;;13.00;7.90;;;;;;;;;;4984916;28;20026;-47
2023/07/17 04:33:57;;;;;;;15.20;9.02;;;;;;;;;;4996104;28;20046;-50
2023/07/17 04:36:23;;;;;;;14.90;8.05;;;;;;;;;;4990695;28;20051;-48
2023/07/17 04:38:49;;;;;;;16.17;7.95;;;;;;;;;;4973738;28;20513;-50
2023/07/17 04:41:15;;;;;;;17.73;8.77;;;;;;;;;;4997388;28;20039;-49
2023/07/17 04:43:41;;;;;;;19.65;8.70;;;;;;;;;;4988318;28;20185;-50
2023/07/17 04:46:06;;;;;;;14.60;8.07;;;;;;;;;;4992898;28;20078;-53
2023/07/17 04:48:32;;;;;;;17.02;8.88;;;;;;;;;;4980341;28;20071;-50
2023/07/17 04:50:57;;;;;;;28.55;9.18;;;;;;;;;;4973310;28;20019;-50
2023/07/17 04:53:23;;;;;;;15.35;9.05;;;;;;;;;;4968611;28;20042;-51
2023/07/17 04:55:48;;;;;;;37.05;10.07;;;;;;;;;;4973174;28;20081;-49
2023/07/17 04:58:14;;;;;;;16.15;9.20;;;;;;;;;;4977760;28;20082;-48
2023/07/17 05:00:39;;;;;;;22.70;9.32;;;;;;;;;;4973423;28;20027;-48
2023/07/17 05:03:05;;;;;;;18.88;8.93;;;;;;;;;;4966337;28;20035;-47
2023/07/17 05:05:31;;;;;;;16.45;8.23;;;;;;;;;;4975001;28;20038;-48
2023/07/17 05:07:56;;;;;;;14.65;8.55;;;;;;;;;;4981220;28;20096;-51
2023/07/17 05:10:22;;;;;;;17.30;9.40;;;;;;;;;;4994342;28;20038;-50
2023/07/17 05:12:47;;;;;;;15.38;9.45;;;;;;;;;;4989541;28;20049;-48
2023/07/17 05:15:13;;;;;;;20.33;8.85;;;;;;;;;;4994491;28;20094;-54
2023/07/17 05:17:38;;;;;;;17.02;9.07;;;;;;;;;;4995582;28;20035;-51
2023/07/17 05:20:05;;;;;;;18.70;8.75;;;;;;;;;;4996071;28;20030;-48
2023/07/17 05:22:31;;;;;;;13.90;7.90;;;;;;;;;;4989979;28;20030;-53
2023/07/17 05:24:56;;;;;;;17.38;8.38;;;;;;;;;;4975427;28;20029;-53
2023/07/17 05:27:22;;;;;;;16.73;8.52;;;;;;;;;;4991161;28;20050;-50
2023/07/17 05:29:47;;;;;;;24.25;9.38;;;;;;;;;;4992655;28;20058;-52
2023/07/17 05:32:13;;;;;;;20.30;8.38;;;;;;;;;;4988139;28;20519;-50
2023/07/17 05:34:38;;;;;;;19.33;8.45;;;;;;;;;;4984617;28;20050;-49
2023/07/17 05:37:05;;;;;;;16.48;8.20;;;;;;;;;;4984235;28;20034;-54
2023/07/17 05:39:30;;;;;;;18.77;8.80;;;;;;;;;;4991133;28;20050;-55
2023/07/17 05:41:56;;;;;;;14.43;8.00;;;;;;;;;;4983940;28;20026;-52
2023/07/17 05:44:21;;;;;;;16.20;7.82;;;;;;;;;;4990642;28;20066;-53
2023/07/17 05:46:47;;;;;;;14.23;7.72;;;;;;;;;;4988770;28;20045;-49
2023/07/17 05:49:12;;;;;;;13.77;7.70;;;;;;;;;;4991194;28;20038;-54
2023/07/17 05:51:38;;;;;;;20.35;8.10;;;;;;;;;;4993090;28;20038;-52
2023/07/17 05:54:03;;;;;;;17.50;8.23;;;;;;;;;;4992515;28;20038;-51
2023/07/17 05:56:29;;;;;;;17.58;7.93;;;;;;;;;;4989318;28;20121;-53
2023/07/17 05:58:54;;;;;;;16.75;8.73;;;;;;;;;;4989803;28;20046;-54
2023/07/17 06:01:20;;;;;;;16.90;7.70;;;;;;;;;;4988381;28;20023;-52
2023/07/17 06:03:45;;;;;;;21.88;8.70;;;;;;;;;;4986670;28;20061;-52
2023/07/17 06:06:11;;;;;;;20.13;8.30;;;;;;;;;;4966403;28;20510;-49
2023/07/17 06:08:36;;;;;;;20.67;8.30;;;;;;;;;;4956064;28;20042;-53
2023/07/17 06:11:01;;;;;;;12.05;7.60;;;;;;;;;;4986139;28;20076;-50
2023/07/17 06:13:27;;;;;;;17.15;7.88;;;;;;;;;;4967627;28;20531;-52
2023/07/17 06:15:52;;;;;;;15.35;8.15;;;;;;;;;;4987208;28;20441;-49
2023/07/17 06:18:18;;;;;;;15.20;8.35;;;;;;;;;;4989932;28;20133;-49
2023/07/17 06:20:43;;;;;;;14.18;7.97;;;;;;;;;;4990593;28;20027;-52
2023/07/17 06:23:09;;;;;;;17.25;8.57;;;;;;;;;;4981471;28;20046;-52
2023/07/17 06:25:36;;;;;;;21.67;9.23;;;;;;;;;;4990602;28;20022;-48
2023/07/17 06:28:01;;;;;;;26.60;8.35;;;;;;;;;;4987750;28;20052;-51
2023/07/17 06:30:27;;;;;;;20.80;8.20;;;;;;;;;;5017340;28;20030;-49
2023/07/17 06:32:52;;;;;;;16.25;7.22;;;;;;;;;;4986837;28;20125;-51
2023/07/17 06:35:18;;;;;;;26.15;8.23;;;;;;;;;;4978394;28;20090;-53
2023/07/17 06:37:44;;;;;;;11.82;6.78;;;;;;;;;;4964164;28;20836;-50
2023/07/17 06:40:10;;;;;;;12.68;6.68;;;;;;;;;;4991770;28;20125;-51
2023/07/17 06:42:36;;;;;;;17.65;7.45;;;;;;;;;;4978651;28;20038;-54
2023/07/17 06:45:02;;;;;;;21.23;7.35;;;;;;;;;;4979281;28;20038;-54
2023/07/17 06:47:28;;;;;;;15.15;7.93;;;;;;;;;;4985496;28;20025;-54
2023/07/17 06:49:54;;;;;;;16.42;7.40;;;;;;;;;;4983392;28;20143;-52
2023/07/17 06:52:19;;;;;;;23.17;8.25;;;;;;;;;;4996239;28;20030;-54
2023/07/17 06:54:44;;;;;;;11.00;6.93;;;;;;;;;;4990044;28;20030;-52
2023/07/17 06:57:10;;;;;;;18.70;7.25;;;;;;;;;;4989952;28;20481;-49
2023/07/17 06:59:35;;;;;;;16.83;7.35;;;;;;;;;;4986167;28;20034;-53
2023/07/17 07:02:01;;;;;;;18.08;7.97;;;;;;;;;;4984545;28;20038;-52
2023/07/17 07:04:26;;;;;;;17.10;8.10;;;;;;;;;;4991266;28;20077;-49
2023/07/17 07:06:51;;;;;;;18.45;8.45;;;;;;;;;;4989705;28;20465;-50
2023/07/17 07:09:17;;;;;;;18.25;8.32;;;;;;;;;;4985831;28;20100;-52
2023/07/17 07:11:42;;;;;;;19.35;7.78;;;;;;;;;;4990074;28;20072;-52
2023/07/17 07:14:08;;;;;;;15.98;7.72;;;;;;;;;;4986814;28;20113;-53
2023/07/17 07:16:33;;;;;;;19.58;7.75;;;;;;;;;;4985589;28;20358;-49
2023/07/17 07:18:58;;;;;;;18.00;8.18;;;;;;;;;;4986031;28;20445;-52
2023/07/17 07:21:24;;;;;;;18.33;8.15;;;;;;;;;;4981808;28;20038;-52
2023/07/17 07:23:49;;;;;;;15.82;8.18;;;;;;;;;;4991346;28;20123;-51
2023/07/17 07:26:15;;;;;;;22.13;8.65;;;;;;;;;;4982609;28;20044;-49
2023/07/17 07:28:40;;;;;;;13.35;8.15;;;;;;;;;;4997930;28;20038;-50
2023/07/17 07:31:05;;;;;;;14.30;7.63;;;;;;;;;;4997909;28;20044;-53
2023/07/17 07:33:31;;;;;;;17.08;7.35;;;;;;;;;;4993656;28;20130;-50
2023/07/17 07:35:56;;;;;;;16.67;8.00;;;;;;;;;;4989482;28;20051;-48
2023/07/17 07:38:22;;;;;;;16.40;8.00;;;;;;;;;;4993690;28;20046;-48
2023/07/17 07:40:48;;;;;;;13.70;7.63;;;;;;;;;;4992920;28;20038;-50
2023/07/17 07:43:13;;;;;;;16.83;7.32;;;;;;;;;;4993278;28;20060;-51
2023/07/17 07:45:38;;;;;;;20.92;7.90;;;;;;;;;;4994109;28;20477;-48
2023/07/17 07:48:04;;;;;;;16.65;6.95;;;;;;;;;;4995608;28;20064;-52
2023/07/17 07:50:30;;;;;;;19.25;7.55;;;;;;;;;;4991796;28;20118;-48
2023/07/17 07:52:55;;;;;;;16.48;7.28;;;;;;;;;;4975861;28;20408;-51
2023/07/17 07:55:21;;;;;;;14.02;7.10;;;;;;;;;;4962738;28;20026;-49
2023/07/17 07:57:48;;;;;;;16.05;7.47;;;;;;;;;;4988580;28;20042;-50
2023/07/17 08:00:14;;;;;;;21.20;7.72;;;;;;;;;;4995793;28;20037;-49
2023/07/17 08:02:39;;;;;;;22.98;7.57;;;;;;;;;;4984098;28;20039;-52
2023/07/17 08:05:05;;;;;;;15.65;7.40;;;;;;;;;;4992883;28;20073;-50
2023/07/17 08:07:31;;;;;;;16.67;7.55;;;;;;;;;;4982453;28;21690;-48
2023/07/17 08:09:56;;;;;;;25.20;7.68;;;;;;;;;;4993543;28;20062;-49
2023/07/17 08:12:21;;;;;;;14.95;7.72;;;;;;;;;;4998688;28;20057;-49
2023/07/17 08:14:47;;;;;;;17.33;7.32;;;;;;;;;;4993485;28;20113;-48
2023/07/17 08:17:12;;;;;;;11.48;7.57;;;;;;;;;;4997647;28;20042;-49
2023/07/17 08:19:37;;;;;;;15.77;6.97;;;;;;;;;;4990603;28;20074;-52
2023/07/17 08:22:03;;;;;;;16.88;7.68;;;;;;;;;;4989766;28;20026;-48
2023/07/17 08:24:28;;;;;;;19.60;7.20;;;;;;;;;;4991632;28;20542;-48
2023/07/17 08:26:55;;;;;;;13.38;6.63;;;;;;;;;;4990587;28;20093;-48
2023/07/17 08:29:21;;;;;;;19.95;7.32;;;;;;;;;;4989699;28;20457;-48
2023/07/17 08:31:46;;;;;;;13.57;7.15;;;;;;;;;;4984749;28;20072;-49
2023/07/17 08:34:11;;;;;;;19.58;7.28;;;;;;;;;;4992168;28;20096;-52
2023/07/17 08:36:37;;;;;;;20.58;7.43;;;;;;;;;;4994147;28;20042;-49
2023/07/17 08:39:04;;;;;;;22.52;8.60;;;;;;;;;;4979404;28;20050;-50
2023/07/17 08:41:30;;;;;;;17.90;7.72;;;;;;;;;;4992522;28;20026;-49
2023/07/17 08:43:58;;;;;;;16.55;8.15;;;;;;;;;;4990445;28;20122;-51
2023/07/17 08:46:24;;;;;;;22.92;8.38;;;;;;;;;;4989096;28;20038;-49
2023/07/17 08:48:52;;;;;;;20.67;7.97;;;;;;;;;;4990319;28;20038;-49
2023/07/17 08:51:21;;;;;;;18.77;8.70;;;;;;;;;;4995754;28;20030;-51
2023/07/17 08:53:47;;;;;;;16.63;8.65;;;;;;;;;;4995474;28;20125;-48
2023/07/17 08:56:12;;;;;;;20.73;8.48;;;;;;;;;;4994502;28;20652;-48
2023/07/17 08:58:42;;;;;;;22.48;9.10;;;;;;;;;;4995477;28;20101;-49
2023/07/17 09:01:08;;;;;;;18.85;8.95;;;;;;;;;;4990061;28;20034;-49
2023/07/17 09:03:36;;;;;;;26.42;8.43;;;;;;;;;;4996739;28;20133;-48
2023/07/17 09:06:03;;;;;;;15.82;8.23;;;;;;;;;;4990356;28;20038;-50
2023/07/17 09:08:28;;;;;;;24.55;8.40;;;;;;;;;;4994477;28;20499;-48
2023/07/17 09:11:04;;;;;;;16.63;7.93;;;;;;;;;;4982708;28;20106;-49
2023/07/17 09:13:41;;;;;;;19.88;7.82;;;;;;;;;;4987347;28;20097;-47
2023/07/17 09:16:25;;;;;;;18.95;6.85;;;;;;;;;;4989907;28;20117;-50
2023/07/17 09:18:53;;;;;;;19.25;7.07;;;;;;;;;;4995106;28;20061;-49
2023/07/17 09:21:21;;;;;;;15.50;7.50;;;;;;;;;;4993443;28;20065;-52
2023/07/17 09:23:51;;;;;;;15.73;7.43;;;;;;;;;;4988914;28;20043;-46
2023/07/17 09:26:19;;;;;;;14.80;8.30;;;;;;;;;;4991553;28;20029;-47
2023/07/17 09:28:49;;;;;;;15.65;7.20;;;;;;;;;;4989402;28;20046;-48
2023/07/17 09:31:41;;;;;;;20.92;7.93;;;;;;;;;;4983382;28;20037;-49
2023/07/17 09:34:12;;;;;;;18.50;6.45;;;;;;;;;;4983575;28;20401;-48
2023/07/17 09:36:37;;;;;;;20.27;6.60;;;;;;;;;;4991646;28;20424;-47
2023/07/17 09:39:05;;;;;;;15.48;6.57;;;;;;;;;;4990547;28;20130;-48
2023/07/17 09:41:31;;;;;;;17.25;7.03;;;;;;;;;;4986281;28;20049;-47
2023/07/17 09:44:05;;;;;;;16.33;5.90;;;;;;;;;;4984991;28;20455;-47
2023/07/17 09:46:38;;;;;;;14.77;5.60;;;;;;;;;;4983950;28;20069;-49
2023/07/17 09:49:06;;;;;;;16.40;5.90;;;;;;;;;;4993079;28;20508;-48
2023/07/17 09:51:32;;;;;;;20.45;5.65;;;;;;;;;;4985426;28;20045;-48
2023/07/17 09:53:58;;;;;;;20.92;6.80;;;;;;;;;;4992194;28;20030;-51
2023/07/17 09:56:28;;;;;;;18.80;6.03;;;;;;;;;;4991780;28;20034;-50
2023/07/17 09:58:57;;;;;;;18.10;6.03;;;;;;;;;;4987347;28;20054;-50
2023/07/17 10:01:25;;;;;;;12.52;5.13;;;;;;;;;;4992701;28;20598;-47
2023/07/17 10:03:51;;;;;;;13.38;5.25;;;;;;;;;;4986592;28;20101;-46
2023/07/17 10:06:18;;;;;;;12.25;4.93;;;;;;;;;;4989148;28;20030;-48
2023/07/17 10:08:50;;;;;;;15.35;5.40;;;;;;;;;;4983810;28;20035;-48
2023/07/17 10:11:17;;;;;;;24.77;5.75;;;;;;;;;;4986442;28;20080;-51
2023/07/17 10:13:49;;;;;;;14.00;5.30;;;;;;;;;;4994283;28;20497;-49
2023/07/17 10:16:17;;;;;;;14.70;5.55;;;;;;;;;;4970646;28;20516;-49
2023/07/17 10:18:50;;;;;;;12.98;5.68;;;;;;;;;;4987435;28;20049;-51
2023/07/17 10:21:17;;;;;;;17.58;4.97;;;;;;;;;;4987131;28;20042;-48
2023/07/17 10:23:44;;;;;;;9.63;4.43;;;;;;;;;;4986467;28;20049;-48
2023/07/17 10:26:12;;;;;;;12.27;5.20;;;;;;;;;;4989302;28;20027;-51
2023/07/17 10:28:39;;;;;;;13.32;4.32;;;;;;;;;;4986379;28;20034;-52
2023/07/17 10:31:08;;;;;;;15.05;4.07;;;;;;;;;;4995336;28;20037;-51
2023/07/17 10:33:37;;;;;;;7.18;4.38;;;;;;;;;;4995221;28;20046;-50
2023/07/17 10:36:03;;;;;;;9.38;4.20;;;;;;;;;;4993494;28;20512;-49
2023/07/17 10:38:30;;;;;;;12.10;4.47;;;;;;;;;;4989795;28;20457;-50
2023/07/17 10:41:23;;;;;;;7.43;3.83;;;;;;;;;;4994971;28;20033;-50
2023/07/17 10:44:03;;;;;;;15.57;3.97;;;;;;;;;;4993695;28;20042;-48
2023/07/17 10:46:31;;;;;;;6.45;3.50;;;;;;;;;;4984009;28;20190;-50
2023/07/17 10:49:08;;;;;;;14.88;4.78;;;;;;;;;;4989893;28;20038;-50
2023/07/17 10:51:36;;;;;;;4.97;3.13;;;;;;;;;;4984409;28;20664;-51
2023/07/17 10:54:01;;;;;;;8.38;3.38;;;;;;;;;;4975729;28;20045;-54
2023/07/17 10:56:27;;;;;;;6.07;2.92;;;;;;;;;;4984015;28;20468;-47
2023/07/17 10:58:53;;;;;;;5.15;2.85;;;;;;;;;;5000393;28;20049;-48
2023/07/17 11:01:18;;;;;;;15.48;3.22;;;;;;;;;;4992904;28;20409;-49
2023/07/17 11:03:47;;;;;;;9.07;3.35;;;;;;;;;;4995087;28;20054;-50
2023/07/17 11:06:14;;;;;;;8.93;3.35;;;;;;;;;;4984736;28;20022;-46
2023/07/17 11:08:39;;;;;;;6.90;3.67;;;;;;;;;;4983394;28;20397;-47
2023/07/17 11:11:05;;;;;;;9.07;3.15;;;;;;;;;;4994803;28;20053;-48
2023/07/17 11:13:33;;;;;;;8.80;3.10;;;;;;;;;;4992720;28;20507;-50
2023/07/17 11:16:07;;;;;;;6.82;3.15;;;;;;;;;;4992475;28;20065;-49
2023/07/17 11:18:32;;;;;;;4.15;3.38;;;;;;;;;;4993888;28;20034;-49
2023/07/17 11:20:57;;;;;;;7.82;3.30;;;;;;;;;;4991599;28;20022;-47
2023/07/17 11:23:23;;;;;;;8.13;3.40;;;;;;;;;;4985604;28;20031;-46
2023/07/17 11:25:49;;;;;;;4.65;2.60;;;;;;;;;;4983523;28;20026;-45
2023/07/17 11:28:14;;;;;;;6.22;3.03;;;;;;;;;;4989923;28;20204;-47
2023/07/17 11:30:40;;;;;;;5.80;3.05;;;;;;;;;;4993520;28;20095;-49
2023/07/17 11:33:07;;;;;;;3.67;2.38;;;;;;;;;;4988303;28;20402;-49
2023/07/17 11:35:39;;;;;;;5.95;2.78;;;;;;;;;;4989883;28;20111;-48
2023/07/17 11:38:09;;;;;;;4.88;2.95;;;;;;;;;;4994443;28;20133;-50
2023/07/17 11:40:55;;;;;;;10.27;4.10;;;;;;;;;;4978432;28;20385;-52
2023/07/17 11:43:30;;;;;;;8.02;4.28;;;;;;;;;;4984336;28;20043;-47
2023/07/17 11:46:01;;;;;;;4.82;3.47;;;;;;;;;;4986713;28;20599;-47
2023/07/17 11:48:28;;;;;;;10.63;3.75;;;;;;;;;;4991084;28;20164;-47
2023/07/17 11:50:57;;;;;;;5.15;3.53;;;;;;;;;;4993037;28;20030;-46
2023/07/17 11:53:23;;;;;;;13.05;4.68;;;;;;;;;;4976313;28;20125;-47
2023/07/17 11:55:50;;;;;;;5.88;4.13;;;;;;;;;;4970192;28;20101;-49
2023/07/17 11:58:22;;;;;;;11.27;3.88;;;;;;;;;;4976477;28;20050;-49
2023/07/17 12:00:49;;;;;;;13.50;3.90;;;;;;;;;;4989372;28;20038;-50
2023/07/17 12:03:15;;;;;;;16.48;4.30;;;;;;;;;;4989510;28;20033;-49
2023/07/17 12:05:41;;;;;;;12.75;4.65;;;;;;;;;;4994447;28;20916;-47
2023/07/17 12:08:07;;;;;;;6.45;3.65;;;;;;;;;;4989459;28;20516;-49
2023/07/17 12:10:34;;;;;;;6.82;4.47;;;;;;;;;;4995499;28;20045;-49
2023/07/17 12:13:00;;;;;;;6.10;4.10;;;;;;;;;;4994863;28;20038;-51
2023/07/17 12:15:26;;;;;;;10.82;4.63;;;;;;;;;;4995974;28;20019;-48
2023/07/17 12:17:52;;;;;;;12.73;4.57;;;;;;;;;;4996385;28;20073;-53
2023/07/17 12:20:20;;;;;;;12.27;4.75;;;;;;;;;;4997299;28;20485;-49
2023/07/17 12:22:46;;;;;;;11.45;4.65;;;;;;;;;;4992010;28;20042;-50
2023/07/17 12:25:12;;;;;;;13.18;4.68;;;;;;;;;;4994171;28;20173;-49
2023/07/17 12:27:37;;;;;;;11.68;4.43;;;;;;;;;;4990284;28;20073;-51
2023/07/17 12:30:03;;;;;;;10.18;5.15;;;;;;;;;;4978036;28;20035;-51
2023/07/17 12:32:29;;;;;;;14.23;5.60;;;;;;;;;;4989448;28;20037;-51
2023/07/17 12:34:54;;;;;;;7.10;5.40;;;;;;;;;;4997178;28;20046;-52
2023/07/17 12:37:19;;;;;;;14.00;5.90;;;;;;;;;;4995655;28;20393;-51
2023/07/17 12:39:45;;;;;;;9.65;4.90;;;;;;;;;;4978311;28;20780;-50
2023/07/17 12:42:11;;;;;;;6.18;4.70;;;;;;;;;;4986209;28;20065;-52
2023/07/17 12:44:36;;;;;;;13.30;4.75;;;;;;;;;;4994338;28;20130;-49
2023/07/17 12:47:02;;;;;;;10.70;4.90;;;;;;;;;;4989585;28;20026;-46
2023/07/17 12:49:27;;;;;;;12.43;4.95;;;;;;;;;;4994976;28;20065;-48
2023/07/17 12:51:52;;;;;;;17.85;5.45;;;;;;;;;;4992917;28;20064;-49
2023/07/17 12:54:19;;;;;;;11.45;5.32;;;;;;;;;;4994359;28;20046;-48
2023/07/17 12:56:44;;;;;;;21.98;6.68;;;;;;;;;;4998318;28;20022;-49
2023/07/17 12:59:10;;;;;;;14.55;6.47;;;;;;;;;;4995094;28;20053;-50
2023/07/17 13:01:35;;;;;;;15.05;6.35;;;;;;;;;;4994554;28;20034;-48
2023/07/17 13:04:01;;;;;;;16.48;5.53;;;;;;;;;;4995909;28;20053;-50
2023/07/17 13:06:27;;;;;;;17.45;6.05;;;;;;;;;;4994362;28;20030;-50
2023/07/17 13:08:52;;;;;;;23.08;5.68;;;;;;;;;;4987519;28;20050;-48
2023/07/17 13:11:18;;;;;;;15.43;6.57;;;;;;;;;;4981819;28;20065;-49
2023/07/17 13:13:43;;;;;;;13.40;6.53;;;;;;;;;;4994575;28;20536;-52
2023/07/17 13:16:09;;;;;;;18.45;6.90;;;;;;;;;;4995079;28;20042;-50
2023/07/17 13:18:36;;;;;;;13.70;6.05;;;;;;;;;;4979031;28;20062;-46
2023/07/17 13:21:02;;;;;;;14.82;6.40;;;;;;;;;;4991414;28;20476;-50
2023/07/17 13:23:27;;;;;;;16.45;6.50;;;;;;;;;;4985102;28;20100;-46
2023/07/17 13:25:52;;;;;;;16.10;6.38;;;;;;;;;;4996281;28;20042;-48
2023/07/17 13:28:18;;;;;;;26.80;6.88;;;;;;;;;;4988449;28;20054;-46
2023/07/17 13:30:44;;;;;;;14.32;6.03;;;;;;;;;;4990461;28;20026;-51
2023/07/17 13:33:09;;;;;;;19.65;6.50;;;;;;;;;;4994438;28;20038;-50
2023/07/17 13:35:35;;;;;;;18.33;6.60;;;;;;;;;;4992933;28;20551;-48
2023/07/17 13:38:00;;;;;;;16.88;6.53;;;;;;;;;;4986423;28;20523;-48
2023/07/17 13:40:26;;;;;;;14.02;6.53;;;;;;;;;;4992090;28;20054;-46
2023/07/17 13:42:51;;;;;;;14.55;6.07;;;;;;;;;;4986583;28;20054;-50
2023/07/17 13:45:16;;;;;;;15.32;6.13;;;;;;;;;;4988659;28;20041;-51
2023/07/17 13:47:42;;;;;;;15.75;6.15;;;;;;;;;;4991995;28;20449;-52
2023/07/17 13:50:08;;;;;;;15.15;6.03;;;;;;;;;;4976104;28;20115;-48
2023/07/17 13:52:33;;;;;;;12.80;5.95;;;;;;;;;;4976191;28;20096;-50
2023/07/17 13:54:58;;;;;;;15.23;6.40;;;;;;;;;;4988071;28;20054;-49
2023/07/17 13:57:24;;;;;;;14.27;6.03;;;;;;;;;;4987269;28;20960;-48
2023/07/17 13:59:49;;;;;;;11.27;5.63;;;;;;;;;;4970758;28;20030;-48
2023/07/17 14:02:15;;;;;;;14.68;6.15;;;;;;;;;;4991052;28;20029;-49
2023/07/17 14:04:40;;;;;;;13.68;5.82;;;;;;;;;;4993326;28;20026;-52
2023/07/17 14:07:05;;;;;;;14.43;5.85;;;;;;;;;;4989914;28;20022;-51
2023/07/17 14:09:31;;;;;;;8.85;5.70;;;;;;;;;;4994089;28;20034;-47
2023/07/17 14:11:56;;;;;;;11.90;5.63;;;;;;;;;;4994166;28;20030;-49
2023/07/17 14:14:22;;;;;;;11.20;4.70;;;;;;;;;;4989230;28;20062;-49
2023/07/17 14:16:48;;;;;;;12.85;5.53;;;;;;;;;;4982888;28;20038;-49
2023/07/17 14:19:14;;;;;;;13.60;5.22;;;;;;;;;;4982418;28;20511;-53
2023/07/17 14:21:39;;;;;;;13.40;5.57;;;;;;;;;;4990907;28;20054;-49
2023/07/17 14:24:05;;;;;;;14.68;5.28;;;;;;;;;;4994827;28;20042;-48
2023/07/17 14:26:30;;;;;;;13.98;5.32;;;;;;;;;;4990232;28;20030;-48